Time,TemperatureF,DewpointF,PressureIn,WindDirection,WindDirectionDegrees,WindSpeedMPH,WindSpeedGustMPH,Humidity,HourlyPrecipIn,Conditions,Clouds,dailyrainin,SoftwareType,DateUTC
2013-07-26 00:00:00,54.7,43.0,29.95,NW,320,4.0,-999.0,66,-99.99,,,0.00,weatherlink.com 1.10,2013-07-26 06:00:00,
2013-07-26 00:15:00,54.3,43.0,29.94,NNW,331,3.0,-999.0,67,-99.99,,,0.00,weatherlink.com 1.10,2013-07-26 06:15:00,
2013-07-26 00:30:00,54.1,42.0,29.94,NNW,331,0.0,-999.0,65,-99.99,,,0.00,weatherlink.com 1.10,2013-07-26 06:30:00,
2013-07-26 00:46:00,54.6,42.0,29.94,SW,217,4.0,-999.0,63,-99.99,,,0.00,weatherlink.com 1.10,2013-07-26 06:46:00,
2013-07-26 01:01:00,54.4,43.0,29.94,SE,144,0.0,-999.0,65,-99.99,,,0.00,weatherlink.com 1.10,2013-07-26 07:01:00,
2013-07-26 01:16:00,54.1,42.0,29.94,SE,144,5.0,-999.0,65,-99.99,,,0.00,weatherlink.com 1.10,2013-07-26 07:16:00,
2013-07-26 01:31:00,54.0,43.0,29.94,SE,144,4.0,-999.0,67,-99.99,,,0.00,weatherlink.com 1.10,2013-07-26 07:31:00,
2013-07-26 01:45:00,53.9,44.0,29.94,SSE,148,6.0,-999.0,69,-99.99,,,0.00,weatherlink.com 1.10,2013-07-26 07:45:00,
2013-07-26 02:00:00,53.7,45.0,29.93,SE,144,5.0,-999.0,72,-99.99,,,0.00,weatherlink.com 1.10,2013-07-26 08:00:00,
2013-07-26 02:15:00,53.7,45.0,29.93,SSE,147,5.0,-999.0,73,-99.99,,,0.00,weatherlink.com 1.10,2013-07-26 08:15:00,
2013-07-26 02:30:00,53.6,45.0,29.93,SSE,155,4.0,-999.0,73,-99.99,,,0.00,weatherlink.com 1.10,2013-07-26 08:30:00,
2013-07-26 02:46:00,53.4,45.0,29.92,SSE,150,0.0,-999.0,73,-99.99,,,0.00,weatherlink.com 1.10,2013-07-26 08:46:00,
2013-07-26 03:01:00,52.5,45.0,29.93,SSE,150,0.0,-999.0,75,-99.99,,,0.00,weatherlink.com 1.10,2013-07-26 09:01:00,
2013-07-26 03:16:00,51.3,44.0,29.92,SSE,150,0.0,-999.0,76,-99.99,,,0.00,weatherlink.com 1.10,2013-07-26 09:16:00,
2013-07-26 03:31:00,50.3,44.0,29.92,SSE,150,0.0,-999.0,78,-99.99,,,0.00,weatherlink.com 1.10,2013-07-26 09:31:00,
2013-07-26 03:46:00,49.9,43.0,29.92,SSE,150,0.0,-999.0,77,-99.99,,,0.00,weatherlink.com 1.10,2013-07-26 09:46:00,
2013-07-26 04:01:00,50.3,43.0,29.92,South,182,0.0,-999.0,76,-99.99,,,0.00,weatherlink.com 1.10,2013-07-26 10:01:00,
2013-07-26 04:16:00,50.4,43.0,29.92,South,182,0.0,-999.0,76,-99.99,,,0.00,weatherlink.com 1.10,2013-07-26 10:16:00,
2013-07-26 04:31:00,50.5,43.0,29.91,South,183,0.0,-999.0,76,-99.99,,,0.00,weatherlink.com 1.10,2013-07-26 10:31:00,
2013-07-26 05:01:00,49.8,43.0,29.91,South,182,0.0,-999.0,77,-99.99,,,0.00,weatherlink.com 1.10,2013-07-26 11:01:00,
2013-07-26 05:16:00,49.3,43.0,29.92,South,180,0.0,-999.0,78,-99.99,,,0.00,weatherlink.com 1.10,2013-07-26 11:16:00,
2013-07-26 05:31:00,48.7,42.0,29.92,South,180,0.0,-999.0,78,-99.99,,,0.00,weatherlink.com 1.10,2013-07-26 11:31:00,
2013-07-26 05:46:00,48.5,42.0,29.93,South,180,0.0,-999.0,78,-99.99,,,0.00,weatherlink.com 1.10,2013-07-26 11:46:00,
2013-07-26 06:01:00,48.4,43.0,29.93,South,180,0.0,-999.0,80,-99.99,,,0.00,weatherlink.com 1.10,2013-07-26 12:01:00,
2013-07-26 06:16:00,48.1,43.0,29.94,South,180,0.0,-999.0,81,-99.99,,,0.00,weatherlink.com 1.10,2013-07-26 12:16:00,
2013-07-26 06:46:00,48.4,43.0,29.95,South,180,0.0,-999.0,81,-99.99,,,0.00,weatherlink.com 1.10,2013-07-26 12:46:00,
2013-07-26 07:01:00,48.7,43.0,29.95,South,180,0.0,-999.0,81,-99.99,,,0.00,weatherlink.com 1.10,2013-07-26 13:01:00,
2013-07-26 07:16:00,49.4,44.0,29.96,South,180,0.0,-999.0,80,-99.99,,,0.00,weatherlink.com 1.10,2013-07-26 13:16:00,
2013-07-26 07:31:00,51.5,45.0,29.96,South,180,0.0,-999.0,78,-99.99,,,0.00,weatherlink.com 1.10,2013-07-26 13:31:00,
2013-07-26 07:46:00,53.7,47.0,29.96,South,180,0.0,-999.0,77,-99.99,,,0.00,weatherlink.com 1.10,2013-07-26 13:46:00,
2013-07-26 08:01:00,55.3,47.0,29.96,South,180,0.0,-999.0,73,-99.99,,,0.00,weatherlink.com 1.10,2013-07-26 14:01:00,
2013-07-26 08:16:00,57.0,48.0,29.97,SSE,168,3.0,-999.0,72,-99.99,,,0.00,weatherlink.com 1.10,2013-07-26 14:16:00,
2013-07-26 08:31:00,58.6,48.0,29.97,SSE,168,0.0,-999.0,69,-99.99,,,0.00,weatherlink.com 1.10,2013-07-26 14:31:00,
2013-07-26 08:46:00,59.6,48.0,29.96,SSE,168,0.0,-999.0,66,-99.99,,,0.00,weatherlink.com 1.10,2013-07-26 14:46:00,
2013-07-26 09:01:00,60.8,48.0,29.96,SSE,168,0.0,-999.0,64,-99.99,,,0.00,weatherlink.com 1.10,2013-07-26 15:01:00,
2013-07-26 09:16:00,62.4,48.0,29.96,SSE,168,3.0,-999.0,59,-99.99,,,0.00,weatherlink.com 1.10,2013-07-26 15:16:00,
2013-07-26 09:32:00,63.8,49.0,29.96,SSE,168,0.0,-999.0,58,-99.99,,,0.00,weatherlink.com 1.10,2013-07-26 15:32:00,
2013-07-26 09:47:00,65.2,50.0,29.95,SSE,167,1.0,-999.0,58,-99.99,,,0.00,weatherlink.com 1.10,2013-07-26 15:47:00,
2013-07-26 10:02:00,66.3,48.0,29.95,SSE,168,0.0,-999.0,53,-99.99,,,0.00,weatherlink.com 1.10,2013-07-26 16:02:00,
2013-07-26 10:17:00,68.1,48.0,29.95,NW,319,0.0,-999.0,49,-99.99,,,0.00,weatherlink.com 1.10,2013-07-26 16:17:00,
2013-07-26 10:32:00,69.5,48.0,29.95,North,360,1.0,-999.0,47,-99.99,,,0.00,weatherlink.com 1.10,2013-07-26 16:32:00,
2013-07-26 10:47:00,70.3,50.0,29.95,NNW,346,0.0,-999.0,49,-99.99,,,0.00,weatherlink.com 1.10,2013-07-26 16:47:00,
2013-07-26 11:02:00,69.7,50.0,29.95,SSE,150,5.0,-999.0,50,-99.99,,,0.00,weatherlink.com 1.10,2013-07-26 17:02:00,
2013-07-26 11:17:00,70.8,51.0,29.96,SSE,163,3.0,-999.0,49,-99.99,,,0.00,weatherlink.com 1.10,2013-07-26 17:17:00,
2013-07-26 11:32:00,71.6,51.0,29.95,SSE,163,5.0,-999.0,48,-99.99,,,0.00,weatherlink.com 1.10,2013-07-26 17:32:00,
2013-07-26 11:47:00,72.4,50.0,29.95,SSE,148,0.0,-999.0,46,-99.99,,,0.00,weatherlink.com 1.10,2013-07-26 17:47:00,
2013-07-26 12:02:00,72.4,50.0,29.95,North,360,1.0,-999.0,45,-99.99,,,0.00,weatherlink.com 1.10,2013-07-26 18:02:00,
2013-07-26 12:17:00,71.0,49.0,29.95,North,360,0.0,-999.0,45,-99.99,,,0.00,weatherlink.com 1.10,2013-07-26 18:17:00,
2013-07-26 12:32:00,68.9,48.0,29.95,ESE,115,3.0,-999.0,48,-99.99,,,0.00,weatherlink.com 1.10,2013-07-26 18:32:00,
2013-07-26 12:47:00,67.3,47.0,29.96,SSW,194,0.0,-999.0,49,-99.99,,,0.00,weatherlink.com 1.10,2013-07-26 18:47:00,
2013-07-26 13:02:00,68.2,49.0,29.95,WNW,285,3.0,-999.0,51,-99.99,,,0.00,weatherlink.com 1.10,2013-07-26 19:02:00,
2013-07-26 13:17:00,70.5,52.0,29.94,SW,224,6.0,-999.0,52,-99.99,,,0.00,weatherlink.com 1.10,2013-07-26 19:17:00,
2013-07-26 13:32:00,70.5,49.0,29.94,SE,132,1.0,-999.0,47,-99.99,,,0.00,weatherlink.com 1.10,2013-07-26 19:32:00,
2013-07-26 13:47:00,67.7,47.0,29.93,SSE,155,3.0,-999.0,47,-99.99,,,0.00,weatherlink.com 1.10,2013-07-26 19:47:00,
2013-07-26 14:02:00,66.8,49.0,29.93,SSE,161,12.0,-999.0,54,-99.99,,,0.00,weatherlink.com 1.10,2013-07-26 20:02:00,
2013-07-26 14:17:00,71.3,49.0,29.93,SE,138,15.0,-999.0,46,-99.99,,,0.00,weatherlink.com 1.10,2013-07-26 20:17:00,
2013-07-26 14:32:00,71.4,50.0,29.92,South,172,9.0,-999.0,47,-99.99,,,0.00,weatherlink.com 1.10,2013-07-26 20:32:00,
2013-07-26 14:47:00,72.2,48.0,29.92,SE,128,7.0,-999.0,42,-99.99,,,0.00,weatherlink.com 1.10,2013-07-26 20:47:00,
2013-07-26 15:02:00,68.7,48.0,29.92,South,169,1.0,-999.0,47,-99.99,,,0.00,weatherlink.com 1.10,2013-07-26 21:02:00,
2013-07-26 15:17:00,66.7,49.0,29.92,South,169,0.0,-999.0,54,-99.99,,,0.00,weatherlink.com 1.10,2013-07-26 21:17:00,
2013-07-26 15:32:00,66.1,50.0,29.91,SSE,166,0.0,-999.0,56,-99.99,,,0.00,weatherlink.com 1.10,2013-07-26 21:32:00,
2013-07-26 15:47:00,69.4,48.0,29.90,North,360,8.0,-999.0,47,-99.99,,,0.00,weatherlink.com 1.10,2013-07-26 21:47:00,
2013-07-26 16:02:00,71.2,46.0,29.90,NNE,14,0.0,-999.0,41,-99.99,,,0.00,weatherlink.com 1.10,2013-07-26 22:02:00,
2013-07-26 16:17:00,72.2,46.0,29.89,NNE,13,9.0,-999.0,40,-99.99,,,0.00,weatherlink.com 1.10,2013-07-26 22:17:00,
2013-07-26 16:32:00,72.3,44.0,29.88,North,355,5.0,-999.0,37,-99.99,,,0.00,weatherlink.com 1.10,2013-07-26 22:32:00,
2013-07-26 16:47:00,71.9,46.0,29.87,North,360,0.0,-999.0,40,-99.99,,,0.00,weatherlink.com 1.10,2013-07-26 22:47:00,
2013-07-26 17:02:00,71.5,44.0,29.86,SSW,192,7.0,-999.0,38,-99.99,,,0.00,weatherlink.com 1.10,2013-07-26 23:02:00,
2013-07-26 17:17:00,71.0,44.0,29.86,SE,138,3.0,-999.0,38,-99.99,,,0.00,weatherlink.com 1.10,2013-07-26 23:17:00,
2013-07-26 17:32:00,71.1,44.0,29.84,SSW,197,3.0,-999.0,38,-99.99,,,0.00,weatherlink.com 1.10,2013-07-26 23:32:00,
2013-07-26 17:47:00,70.9,45.0,29.84,SW,214,4.0,-999.0,39,-99.99,,,0.00,weatherlink.com 1.10,2013-07-26 23:47:00,
2013-07-26 18:02:00,71.8,45.0,29.83,South,189,5.0,-999.0,38,-99.99,,,0.00,weatherlink.com 1.10,2013-07-27 00:02:00,
2013-07-26 18:17:00,72.2,44.0,29.84,SSE,148,0.0,-999.0,37,-99.99,,,0.00,weatherlink.com 1.10,2013-07-27 00:17:00,
2013-07-26 18:32:00,71.4,44.0,29.82,SSW,207,0.0,-999.0,38,-99.99,,,0.00,weatherlink.com 1.10,2013-07-27 00:32:00,
2013-07-26 18:47:00,70.3,45.0,29.82,SSE,161,2.0,-999.0,41,-99.99,,,0.00,weatherlink.com 1.10,2013-07-27 00:47:00,
2013-07-26 19:02:00,69.1,44.0,29.82,SSE,152,1.0,-999.0,41,-99.99,,,0.00,weatherlink.com 1.10,2013-07-27 01:02:00,
2013-07-26 19:17:00,67.9,44.0,29.82,SE,138,6.0,-999.0,42,-99.99,,,0.00,weatherlink.com 1.10,2013-07-27 01:17:00,
2013-07-26 19:32:00,67.1,44.0,29.82,SE,130,11.0,-999.0,44,-99.99,,,0.00,weatherlink.com 1.10,2013-07-27 01:32:00,
2013-07-26 19:47:00,66.2,45.0,29.83,SE,146,0.0,-999.0,46,-99.99,,,0.00,weatherlink.com 1.10,2013-07-27 01:47:00,
2013-07-26 20:02:00,64.5,43.0,29.84,North,360,5.0,-999.0,45,-99.99,,,0.00,weatherlink.com 1.10,2013-07-27 02:02:00,
2013-07-26 20:17:00,61.4,43.0,29.85,North,355,17.0,-999.0,52,-99.99,,,0.00,weatherlink.com 1.10,2013-07-27 02:17:00,
2013-07-26 20:33:00,58.0,43.0,29.86,North,360,3.0,-999.0,58,-99.99,,,0.00,weatherlink.com 1.10,2013-07-27 02:33:00,
2013-07-26 20:48:00,56.7,43.0,29.86,SSE,162,1.0,-999.0,60,-99.99,,,0.00,weatherlink.com 1.10,2013-07-27 02:48:00,
2013-07-26 21:03:00,55.8,43.0,29.87,North,360,0.0,-999.0,63,-99.99,,,0.00,weatherlink.com 1.10,2013-07-27 03:03:00,
2013-07-26 21:18:00,54.9,43.0,29.87,SE,136,0.0,-999.0,64,-99.99,,,0.00,weatherlink.com 1.10,2013-07-27 03:18:00,
2013-07-26 21:33:00,54.1,43.0,29.86,ESE,113,0.0,-999.0,66,-99.99,,,0.00,weatherlink.com 1.10,2013-07-27 03:33:00,
2013-07-26 21:48:00,53.3,43.0,29.86,ESE,113,0.0,-999.0,68,-99.99,,,0.00,weatherlink.com 1.10,2013-07-27 03:48:00,
2013-07-26 22:03:00,52.8,43.0,29.86,SSW,200,3.0,-999.0,69,-99.99,,,0.00,weatherlink.com 1.10,2013-07-27 04:03:00,
2013-07-26 22:18:00,52.9,43.0,29.85,SW,229,3.0,-999.0,69,-99.99,,,0.00,weatherlink.com 1.10,2013-07-27 04:18:00,
2013-07-26 22:33:00,53.4,43.0,29.84,WNW,286,3.0,-999.0,68,-99.99,,,0.00,weatherlink.com 1.10,2013-07-27 04:33:00,
2013-07-26 22:48:00,53.2,43.0,29.84,WNW,292,2.0,-999.0,68,-99.99,,,0.00,weatherlink.com 1.10,2013-07-27 04:48:00,
2013-07-26 23:03:00,53.4,43.0,29.84,WNW,283,0.0,-999.0,67,-99.99,,,0.00,weatherlink.com 1.10,2013-07-27 05:03:00,
2013-07-26 23:18:00,54.1,42.0,29.83,West,266,0.0,-999.0,64,-99.99,,,0.00,weatherlink.com 1.10,2013-07-27 05:18:00,
2013-07-26 23:33:00,54.0,42.0,29.83,West,266,0.0,-999.0,64,-99.99,,,0.00,weatherlink.com 1.10,2013-07-27 05:33:00,
2013-07-26 23:48:00,53.7,41.0,29.83,West,267,0.0,-999.0,63,-99.99,,,0.00,weatherlink.com 1.10,2013-07-27 05:48:00,